createdAt,value
2019-06-01T00:01:51.055Z,18.90
2019-06-01T00:04:18.322Z,18.82
2019-06-01T00:06:46.938Z,18.80
2019-06-01T00:09:13.825Z,18.61
2019-06-01T00:11:41.268Z,18.62
2019-06-01T00:14:09.992Z,18.70
2019-06-01T00:16:36.338Z,18.64
2019-06-01T00:19:02.966Z,18.89
2019-06-01T00:21:33.941Z,18.96
2019-06-01T00:24:00.627Z,18.91
2019-06-01T00:26:27.262Z,18.95
2019-06-01T00:28:53.929Z,18.91
2019-06-01T00:31:20.616Z,18.73
2019-06-01T00:33:47.660Z,18.73
2019-06-01T00:36:14.596Z,18.71
2019-06-01T00:38:41.696Z,18.73
2019-06-01T00:41:08.386Z,18.87
2019-06-01T00:43:36.999Z,18.84
2019-06-01T00:46:03.627Z,18.76
2019-06-01T00:48:30.318Z,18.82
2019-06-01T00:50:56.956Z,18.98
2019-06-01T00:53:23.591Z,18.72
2019-06-01T00:55:51.477Z,18.57
2019-06-01T00:58:18.208Z,18.60
2019-06-01T01:00:46.119Z,18.60
2019-06-01T01:03:13.743Z,18.65
2019-06-01T01:05:41.872Z,18.63
2019-06-01T01:08:09.851Z,18.71
2019-06-01T01:10:36.523Z,18.72
2019-06-01T01:13:03.359Z,18.78
2019-06-01T01:15:30.001Z,18.88
2019-06-01T01:17:56.686Z,18.80
2019-06-01T01:20:23.543Z,18.81
2019-06-01T01:22:50.351Z,18.75
2019-06-01T01:25:16.968Z,18.82
2019-06-01T01:27:44.017Z,18.76
2019-06-01T01:30:10.623Z,18.86
2019-06-01T01:32:37.553Z,18.92
2019-06-01T01:35:04.486Z,18.93
2019-06-01T01:37:31.230Z,19.01
2019-06-01T01:39:58.597Z,19.05
2019-06-01T01:42:25.583Z,19.01
2019-06-01T01:44:52.580Z,18.98
2019-06-01T01:47:19.223Z,19.16
2019-06-01T01:49:46.327Z,19.24
2019-06-01T01:52:18.470Z,19.18
2019-06-01T01:54:46.284Z,19.02
2019-06-01T01:57:13.036Z,19.04
2019-06-01T01:59:57.736Z,19.01
2019-06-01T02:02:24.888Z,19.04
2019-06-01T02:04:51.810Z,18.99
2019-06-01T02:07:18.411Z,18.85
2019-06-01T02:09:46.634Z,18.94
2019-06-01T02:12:13.248Z,19.02
2019-06-01T02:14:40.027Z,19.26
2019-06-01T02:17:06.682Z,19.37
2019-06-01T02:19:37.538Z,19.23
2019-06-01T02:22:03.572Z,19.17
2019-06-01T02:24:30.076Z,19.26
2019-06-01T02:26:57.232Z,19.40
2019-06-01T02:29:23.865Z,19.39
2019-06-01T02:31:52.656Z,19.46
2019-06-01T02:34:19.971Z,19.55
2019-06-01T02:36:46.692Z,19.71
2019-06-01T02:39:13.623Z,19.62
2019-06-01T02:41:40.225Z,19.49
2019-06-01T02:44:10.195Z,19.08
2019-06-01T02:46:36.843Z,18.71
2019-06-01T02:49:04.290Z,18.81
2019-06-01T02:51:31.783Z,19.09
2019-06-01T02:53:59.565Z,18.98
2019-06-01T02:56:29.595Z,18.86
2019-06-01T02:58:56.213Z,18.98
2019-06-01T03:01:25.382Z,19.06
2019-06-01T03:03:52.024Z,19.16
2019-06-01T03:06:19.088Z,19.21
2019-06-01T03:08:45.779Z,19.35
2019-06-01T03:11:17.473Z,19.45
2019-06-01T03:13:44.225Z,19.37
2019-06-01T03:18:50.305Z,19.33
2019-06-01T03:26:40.853Z,19.48
2019-06-01T03:29:09.492Z,19.59
2019-06-01T03:31:36.659Z,19.51
2019-06-01T03:34:04.411Z,19.32
2019-06-01T03:36:31.923Z,19.29
2019-06-01T03:38:59.874Z,19.12
2019-06-01T03:41:26.935Z,19.15
2019-06-01T03:46:37.691Z,19.09
2019-06-01T03:49:05.659Z,19.31
2019-06-01T03:51:32.674Z,19.71
2019-06-01T03:54:00.598Z,20.20
2019-06-01T03:56:27.897Z,20.34
2019-06-01T03:58:54.507Z,20.35
2019-06-01T04:01:21.126Z,20.29
2019-06-01T04:03:47.807Z,20.12
2019-06-01T04:06:14.411Z,19.90
2019-06-01T04:11:25.109Z,19.57
2019-06-01T04:13:51.722Z,19.18
2019-06-01T04:19:03.714Z,19.61
2019-06-01T04:21:33.109Z,19.87
2019-06-01T04:23:59.749Z,20.18
2019-06-01T04:26:27.116Z,20.43
2019-06-01T04:28:53.752Z,20.65
2019-06-01T04:31:20.520Z,20.87
2019-06-01T04:33:47.404Z,21.05
2019-06-01T04:36:14.341Z,21.17
2019-06-01T04:38:41.238Z,21.01
2019-06-01T04:41:07.900Z,21.11
2019-06-01T04:43:34.560Z,21.31
2019-06-01T04:46:01.439Z,21.17
2019-06-01T04:48:28.123Z,21.05
2019-06-01T04:50:55.054Z,21.13
2019-06-01T04:53:21.690Z,21.21
2019-06-01T04:55:48.588Z,21.28
2019-06-01T04:58:15.187Z,21.42
2019-06-01T05:00:42.143Z,21.31
2019-06-01T05:03:13.497Z,21.31
2019-06-01T05:05:40.874Z,21.36
2019-06-01T05:08:07.474Z,21.55
2019-06-01T05:10:34.356Z,21.58
2019-06-01T05:13:01.079Z,21.60
2019-06-01T05:15:27.740Z,21.50
2019-06-01T05:17:55.954Z,21.44
2019-06-01T05:20:22.684Z,21.36
2019-06-01T05:22:49.614Z,21.34
2019-06-01T05:25:17.174Z,21.30
2019-06-01T05:27:43.968Z,21.83
2019-06-01T05:30:13.771Z,22.14
2019-06-01T05:32:40.597Z,22.45
2019-06-01T05:35:07.755Z,22.70
2019-06-01T05:38:16.546Z,22.91
2019-06-01T05:40:38.929Z,22.67
2019-06-01T05:43:05.634Z,22.68
2019-06-01T05:45:32.574Z,23.07
2019-06-01T05:47:59.257Z,23.60
2019-06-01T05:50:25.904Z,24.20
2019-06-01T05:52:52.504Z,24.31
2019-06-01T05:55:19.878Z,24.47
2019-06-01T05:57:46.786Z,24.86
2019-06-01T06:00:13.527Z,24.97
2019-06-01T06:02:40.852Z,25.04
2019-06-01T06:05:10.675Z,25.33
2019-06-01T06:07:38.046Z,25.43
2019-06-01T06:10:04.877Z,25.35
2019-06-01T06:12:34.568Z,25.78
2019-06-01T06:15:07.852Z,26.07
2019-06-01T06:17:38.458Z,26.25
2019-06-01T06:20:23.155Z,26.20
2019-06-01T06:22:50.785Z,26.38
2019-06-01T06:25:18.084Z,26.49
2019-06-01T06:27:44.914Z,26.33
2019-06-01T06:30:12.797Z,26.16
2019-06-01T06:32:40.053Z,26.20
2019-06-01T06:35:07.109Z,26.17
2019-06-01T06:37:34.038Z,25.91
2019-06-01T06:40:00.911Z,25.86
2019-06-01T06:42:27.842Z,25.89
2019-06-01T06:44:54.540Z,25.91
2019-06-01T06:47:21.459Z,25.97
2019-06-01T06:49:48.251Z,25.98
2019-06-01T06:52:15.555Z,26.02
2019-06-01T06:54:42.439Z,25.84
2019-06-01T06:57:09.333Z,25.85
2019-06-01T06:59:37.019Z,25.85
2019-06-01T07:02:04.292Z,25.89
2019-06-01T07:04:31.168Z,25.79
2019-06-01T07:06:57.963Z,25.84
2019-06-01T07:09:26.085Z,25.74
2019-06-01T07:11:53.158Z,25.64
2019-06-01T07:14:21.199Z,25.84
2019-06-01T07:16:48.126Z,26.12
2019-06-01T07:19:15.017Z,26.23
2019-06-01T07:21:41.984Z,26.40
2019-06-01T07:24:09.292Z,26.41
2019-06-01T07:26:36.277Z,26.42
2019-06-01T07:29:04.041Z,26.74
2019-06-01T07:31:32.441Z,27.27
2019-06-01T07:33:59.374Z,27.68
2019-06-01T07:36:27.047Z,27.93
2019-06-01T07:38:54.154Z,27.95
2019-06-01T07:41:22.452Z,28.18
2019-06-01T07:43:49.245Z,28.21
2019-06-01T07:46:16.530Z,28.41
2019-06-01T07:48:43.259Z,28.30
2019-06-01T07:51:10.287Z,28.19
2019-06-01T07:53:38.560Z,28.35
2019-06-01T07:56:05.531Z,28.83
2019-06-01T07:58:33.006Z,29.05
2019-06-01T08:00:59.736Z,29.47
2019-06-01T08:03:30.706Z,29.23
2019-06-01T08:05:55.125Z,29.12
2019-06-01T08:08:23.310Z,29.20
2019-06-01T08:10:50.405Z,29.28
2019-06-01T08:13:17.335Z,29.39
2019-06-01T08:15:44.243Z,29.46
2019-06-01T08:18:11.496Z,29.69
2019-06-01T08:20:38.526Z,29.39
2019-06-01T08:23:05.743Z,29.16
2019-06-01T08:25:32.826Z,28.83
2019-06-01T08:27:59.603Z,28.71
2019-06-01T08:30:26.791Z,29.15
2019-06-01T08:32:53.753Z,29.11
2019-06-01T08:35:21.155Z,29.26
2019-06-01T08:37:48.112Z,29.36
2019-06-01T08:40:15.078Z,29.65
2019-06-01T08:42:43.502Z,30.13
2019-06-01T08:45:10.420Z,30.28
2019-06-01T08:47:37.372Z,30.22
2019-06-01T08:50:04.258Z,30.22
2019-06-01T08:52:32.230Z,30.13
2019-06-01T08:54:59.293Z,29.86
2019-06-01T08:57:26.256Z,29.79
2019-06-01T08:59:53.169Z,30.17
2019-06-01T09:02:20.180Z,30.43
2019-06-01T09:04:47.463Z,30.46
2019-06-01T09:07:17.442Z,30.69
2019-06-01T09:09:47.914Z,30.70
2019-06-01T09:12:27.274Z,30.63
2019-06-01T09:14:54.369Z,30.63
2019-06-01T09:17:22.015Z,30.96
2019-06-01T09:19:50.803Z,31.05
2019-06-01T09:22:35.767Z,30.92
2019-06-01T09:25:02.864Z,30.72
2019-06-01T09:27:30.101Z,30.76
2019-06-01T09:29:56.796Z,30.97
2019-06-01T09:32:23.900Z,30.90
2019-06-01T09:34:55.628Z,30.55
2019-06-01T09:37:22.681Z,30.19
2019-06-01T09:39:53.190Z,29.69
2019-06-01T09:42:22.255Z,29.63
2019-06-01T09:44:48.726Z,29.49
2019-06-01T09:47:15.983Z,29.65
2019-06-01T09:49:42.993Z,30.38
2019-06-01T09:52:12.546Z,30.96
2019-06-01T09:54:38.459Z,31.02
2019-06-01T09:57:05.149Z,31.18
2019-06-01T09:59:32.233Z,31.56
2019-06-01T10:01:59.219Z,31.69
2019-06-01T10:04:26.205Z,31.69
2019-06-01T10:06:53.176Z,31.28
2019-06-01T10:09:20.093Z,30.94
2019-06-01T10:14:17.135Z,30.28
2019-06-01T10:16:46.786Z,30.43
2019-06-01T10:19:14.016Z,30.11
2019-06-01T10:21:42.192Z,30.48
2019-06-01T10:24:09.127Z,30.75
2019-06-01T10:26:43.539Z,31.27
2019-06-01T10:29:11.233Z,31.55
2019-06-01T10:31:41.195Z,31.48
2019-06-01T10:34:06.844Z,31.65
2019-06-01T10:36:37.970Z,31.83
2019-06-01T10:39:04.721Z,32.20
2019-06-01T10:41:31.731Z,31.74
2019-06-01T10:46:45.675Z,31.50
2019-06-01T10:49:12.384Z,31.35
2019-06-01T10:54:23.408Z,31.95
2019-06-01T10:57:06.340Z,32.41
2019-06-01T10:59:34.259Z,31.96
2019-06-01T11:02:01.939Z,31.76
2019-06-01T11:04:29.270Z,31.91
2019-06-01T11:06:58.296Z,31.99
2019-06-01T11:09:27.512Z,31.94
2019-06-01T11:11:54.949Z,31.89
2019-06-01T11:14:22.067Z,31.65
2019-06-01T11:16:55.639Z,31.70
2019-06-01T11:21:53.022Z,31.69
2019-06-01T11:24:19.866Z,31.49
2019-06-01T11:26:51.574Z,31.40
2019-06-01T11:29:20.940Z,31.31
2019-06-01T11:31:47.912Z,31.21
2019-06-01T11:34:14.980Z,31.61
2019-06-01T11:37:01.900Z,31.84
2019-06-01T11:39:15.928Z,31.75
2019-06-01T11:41:42.629Z,31.56
2019-06-01T11:44:10.050Z,31.34
2019-06-01T11:46:36.989Z,31.00
2019-06-01T11:49:05.477Z,31.01
2019-06-01T11:51:32.529Z,31.70
2019-06-01T11:54:11.378Z,32.57
2019-06-01T11:56:39.189Z,32.73
2019-06-01T11:59:06.234Z,32.45
2019-06-01T12:01:33.282Z,32.37
2019-06-01T12:04:00.486Z,32.28
2019-06-01T12:06:27.930Z,32.11
2019-06-01T12:08:54.854Z,32.31
2019-06-01T12:11:22.023Z,32.44
2019-06-01T12:13:53.776Z,33.05
2019-06-01T12:16:25.881Z,33.06
2019-06-01T12:18:53.106Z,32.01
2019-06-01T12:21:20.083Z,32.00
2019-06-01T12:23:47.574Z,32.56
2019-06-01T12:26:14.850Z,33.33
2019-06-01T12:28:42.146Z,33.32
2019-06-01T12:31:08.829Z,33.18
2019-06-01T12:33:35.973Z,32.81
2019-06-01T12:36:02.995Z,32.62
2019-06-01T12:38:29.979Z,32.57
2019-06-01T12:40:57.959Z,32.96
2019-06-01T12:43:24.925Z,33.38
2019-06-01T12:46:06.528Z,33.22
2019-06-01T12:48:24.039Z,32.86
2019-06-01T12:50:51.047Z,32.60
2019-06-01T12:53:18.135Z,32.42
2019-06-01T12:55:48.880Z,32.23
2019-06-01T12:58:16.009Z,32.16
2019-06-01T13:00:44.155Z,32.10
2019-06-01T13:03:11.214Z,32.01
2019-06-01T13:05:38.251Z,31.87
2019-06-01T13:08:05.324Z,31.70
2019-06-01T13:10:32.330Z,32.19
2019-06-01T13:12:59.351Z,32.72
2019-06-01T13:15:29.471Z,32.99
2019-06-01T13:17:56.976Z,33.09
2019-06-01T13:20:25.029Z,33.58
2019-06-01T13:22:52.024Z,33.49
2019-06-01T13:25:19.058Z,33.62
2019-06-01T13:30:21.201Z,34.25
2019-06-01T13:32:48.726Z,34.31
2019-06-01T13:35:21.789Z,33.94
2019-06-01T13:37:50.989Z,33.23
2019-06-01T13:40:18.405Z,32.87
2019-06-01T13:42:45.395Z,32.75
2019-06-01T13:45:12.425Z,32.58
2019-06-01T13:47:39.346Z,32.64
2019-06-01T13:50:08.893Z,33.16
2019-06-01T13:52:35.928Z,33.43
2019-06-01T13:57:48.315Z,34.22
2019-06-01T14:00:29.244Z,34.20
2019-06-01T14:02:49.006Z,33.83
2019-06-01T14:05:14.042Z,34.05
2019-06-01T14:07:41.017Z,33.97
2019-06-01T14:10:07.930Z,33.87
2019-06-01T14:12:35.018Z,33.47
2019-06-01T14:15:01.915Z,32.79
2019-06-01T14:17:28.991Z,32.59
2019-06-01T14:19:56.143Z,32.94
2019-06-01T14:22:40.616Z,32.97
2019-06-01T14:25:13.650Z,33.24
2019-06-01T14:30:24.123Z,33.41
2019-06-01T14:33:06.742Z,33.79
2019-06-01T14:35:30.175Z,34.05
2019-06-01T14:37:57.446Z,34.48
2019-06-01T14:40:28.567Z,34.60
2019-06-01T14:42:55.659Z,34.23
2019-06-01T14:45:22.822Z,34.00
2019-06-01T14:47:50.036Z,34.05
2019-06-01T14:50:17.017Z,33.92
2019-06-01T14:52:44.036Z,33.76
2019-06-01T14:55:10.999Z,33.45
2019-06-01T14:57:37.693Z,32.85
2019-06-01T15:00:05.061Z,32.63
2019-06-01T15:05:09.937Z,33.32
2019-06-01T15:07:37.889Z,33.14
2019-06-01T15:10:04.975Z,33.03
2019-06-01T15:12:32.157Z,32.58
2019-06-01T15:14:59.598Z,32.41
2019-06-01T15:17:27.267Z,32.18
2019-06-01T15:19:54.314Z,31.96
2019-06-01T15:22:21.326Z,32.01
2019-06-01T15:24:48.275Z,31.97
2019-06-01T15:27:15.382Z,32.09
2019-06-01T15:29:42.058Z,32.08
2019-06-01T15:32:15.766Z,32.23
2019-06-01T15:34:39.779Z,32.27
2019-06-01T15:37:06.752Z,32.23
2019-06-01T15:39:33.505Z,32.10
2019-06-01T15:42:01.343Z,32.09
2019-06-01T15:44:28.356Z,32.18
2019-06-01T15:46:55.840Z,32.19
2019-06-01T15:49:22.820Z,32.13
2019-06-01T15:51:49.794Z,32.04
2019-06-01T15:54:17.791Z,32.06
2019-06-01T15:56:45.051Z,31.97
2019-06-01T15:59:12.113Z,32.19
2019-06-01T16:01:39.162Z,32.17
2019-06-01T16:04:06.142Z,32.04
2019-06-01T16:06:33.390Z,32.13
2019-06-01T16:09:01.661Z,32.08
2019-06-01T16:11:28.948Z,32.11
2019-06-01T16:13:55.909Z,31.88
2019-06-01T16:16:22.587Z,31.86
2019-06-01T16:18:49.950Z,31.97
2019-06-01T16:21:16.722Z,31.85
2019-06-01T16:23:49.724Z,31.75
2019-06-01T16:26:16.051Z,31.74
2019-06-01T16:28:40.767Z,31.81
2019-06-01T16:31:07.717Z,32.10
2019-06-01T16:33:34.661Z,31.78
2019-06-01T16:36:03.381Z,31.55
2019-06-01T16:38:30.737Z,31.33
2019-06-01T16:41:03.331Z,30.95
2019-06-01T16:43:26.477Z,30.95
2019-06-01T16:45:53.678Z,31.00
2019-06-01T16:48:20.798Z,30.97
2019-06-01T16:50:47.809Z,30.87
2019-06-01T16:53:14.898Z,30.90
2019-06-01T16:55:42.098Z,31.10
2019-06-01T16:58:09.165Z,31.01
2019-06-01T17:00:39.416Z,31.04
2019-06-01T17:03:07.844Z,31.09
2019-06-01T17:05:35.294Z,31.07
2019-06-01T17:08:02.802Z,31.09
2019-06-01T17:10:30.057Z,30.73
2019-06-01T17:12:57.224Z,30.34
2019-06-01T17:15:26.270Z,30.51
2019-06-01T17:17:53.023Z,30.66
2019-06-01T17:20:20.114Z,30.79
2019-06-01T17:22:47.153Z,30.61
2019-06-01T17:25:14.231Z,30.57
2019-06-01T17:27:42.138Z,30.58
2019-06-01T17:30:11.769Z,30.59
2019-06-01T17:32:37.741Z,30.48
2019-06-01T17:35:05.119Z,30.41
2019-06-01T17:37:32.174Z,30.57
2019-06-01T17:40:00.032Z,30.48
2019-06-01T17:42:26.848Z,30.30
2019-06-01T17:44:53.813Z,30.23
2019-06-01T17:47:20.875Z,30.10
2019-06-01T17:49:48.001Z,30.00
2019-06-01T17:52:17.755Z,29.95
2019-06-01T17:54:45.035Z,29.81
2019-06-01T17:57:12.193Z,29.77
2019-06-01T17:59:39.286Z,29.62
2019-06-01T18:02:07.852Z,29.60
2019-06-01T18:04:35.195Z,29.53
2019-06-01T18:07:03.668Z,29.45
2019-06-01T18:09:31.220Z,29.31
2019-06-01T18:11:59.647Z,29.30
2019-06-01T18:14:27.151Z,29.20
2019-06-01T18:16:56.213Z,29.16
2019-06-01T18:19:23.292Z,29.02
2019-06-01T18:21:50.554Z,28.88
2019-06-01T18:24:17.931Z,28.81
2019-06-01T18:26:44.762Z,28.78
2019-06-01T18:29:12.926Z,28.72
2019-06-01T18:31:40.260Z,28.59
2019-06-01T18:34:07.835Z,28.56
2019-06-01T18:36:35.055Z,28.42
2019-06-01T18:39:13.696Z,28.26
2019-06-01T18:41:31.493Z,28.25
2019-06-01T18:44:00.195Z,28.12
2019-06-01T18:46:27.360Z,28.08
2019-06-01T18:48:54.706Z,27.95
2019-06-01T18:51:25.953Z,27.97
2019-06-01T18:53:52.872Z,27.97
2019-06-01T18:56:20.142Z,27.86
2019-06-01T18:58:49.165Z,27.79
2019-06-01T19:01:20.600Z,27.72
2019-06-01T19:03:46.846Z,27.71
2019-06-01T19:06:14.095Z,27.72
2019-06-01T19:08:47.171Z,27.68
2019-06-01T19:11:30.682Z,27.61
2019-06-01T19:13:43.329Z,27.66
2019-06-01T19:16:10.541Z,27.66
2019-06-01T19:18:39.937Z,27.56
2019-06-01T19:21:07.130Z,27.52
2019-06-01T19:23:34.308Z,27.46
2019-06-01T19:26:01.520Z,27.42
2019-06-01T19:28:29.445Z,27.42
2019-06-01T19:30:56.675Z,27.36
2019-06-01T19:33:25.049Z,27.37
2019-06-01T19:35:58.230Z,27.35
2019-06-01T19:38:21.430Z,27.27
2019-06-01T19:40:49.261Z,27.09
2019-06-01T19:43:19.678Z,26.90
2019-06-01T19:45:46.421Z,26.84
2019-06-01T19:48:14.531Z,26.77
2019-06-01T19:50:42.113Z,26.76
2019-06-01T19:53:09.116Z,26.63
2019-06-01T19:55:37.592Z,26.58
2019-06-01T19:58:07.247Z,26.57
2019-06-01T20:00:33.536Z,26.51
2019-06-01T20:03:00.762Z,26.51
2019-06-01T20:05:32.589Z,26.52
2019-06-01T20:07:59.602Z,26.52
2019-06-01T20:10:26.608Z,26.52
2019-06-01T20:12:53.334Z,26.56
2019-06-01T20:15:21.555Z,26.54
2019-06-01T20:17:48.632Z,26.38
2019-06-01T20:20:16.913Z,26.35
2019-06-01T20:22:44.073Z,26.29
2019-06-01T20:25:11.554Z,26.33
2019-06-01T20:27:38.614Z,26.36
2019-06-01T20:30:05.786Z,26.20
2019-06-01T20:32:34.278Z,26.22
2019-06-01T20:35:01.460Z,26.12
2019-06-01T20:37:29.016Z,26.03
2019-06-01T20:39:57.302Z,26.00
2019-06-01T20:42:31.828Z,25.88
2019-06-01T20:44:59.161Z,25.86
2019-06-01T20:47:31.752Z,25.76
2019-06-01T20:49:59.216Z,25.83
2019-06-01T20:52:23.591Z,25.87
2019-06-01T20:54:50.857Z,25.75
2019-06-01T20:57:21.432Z,25.72
2019-06-01T20:59:48.494Z,25.77
2019-06-01T21:02:15.793Z,25.62
2019-06-01T21:07:15.729Z,25.74
2019-06-01T21:09:42.632Z,25.73
2019-06-01T21:12:09.773Z,25.78
2019-06-01T21:14:37.095Z,25.73
2019-06-01T21:17:04.088Z,25.57
2019-06-01T21:19:31.126Z,25.55
2019-06-01T21:21:58.133Z,25.55
2019-06-01T21:24:25.256Z,25.61
2019-06-01T21:26:52.351Z,25.61
2019-06-01T21:29:22.716Z,25.59
2019-06-01T21:31:48.411Z,25.64
2019-06-01T21:34:15.551Z,25.63
2019-06-01T21:36:42.897Z,25.56
2019-06-01T21:39:09.900Z,25.53
2019-06-01T21:41:36.896Z,25.41
2019-06-01T21:46:36.675Z,25.41
2019-06-01T21:49:03.666Z,25.26
2019-06-01T21:51:30.722Z,25.34
2019-06-01T21:54:02.847Z,25.35
2019-06-01T21:56:29.630Z,25.22
2019-06-01T21:58:57.992Z,25.20
2019-06-01T22:01:25.020Z,25.21
2019-06-01T22:03:52.209Z,25.23
2019-06-01T22:06:19.395Z,25.22
2019-06-01T22:08:52.307Z,25.25
2019-06-01T22:11:14.830Z,25.37
2019-06-01T22:13:41.554Z,25.28
2019-06-01T22:16:08.608Z,25.25
2019-06-01T22:18:35.593Z,25.21
2019-06-01T22:21:02.590Z,25.10
2019-06-01T22:23:30.745Z,25.09
2019-06-01T22:25:57.920Z,24.97
2019-06-01T22:28:24.870Z,24.77
2019-06-01T22:30:51.994Z,24.74
2019-06-01T22:33:28.787Z,24.87
2019-06-01T22:35:55.893Z,24.85
2019-06-01T22:38:23.761Z,24.88
2019-06-01T22:40:50.938Z,24.88
2019-06-01T22:43:36.826Z,24.74
2019-06-01T22:45:48.087Z,24.79
2019-06-01T22:48:15.422Z,24.88
2019-06-01T22:50:42.606Z,24.70
2019-06-01T22:53:10.980Z,24.47
2019-06-01T22:55:37.989Z,24.60
2019-06-01T22:58:05.140Z,24.75
2019-06-01T23:00:35.586Z,24.32
2019-06-01T23:03:03.800Z,24.22
2019-06-01T23:05:31.297Z,24.18
2019-06-01T23:08:01.494Z,24.18
2019-06-01T23:10:32.048Z,24.21
2019-06-01T23:12:57.177Z,24.31
2019-06-01T23:15:25.580Z,24.41
2019-06-01T23:17:52.999Z,24.39
2019-06-01T23:20:19.954Z,24.36
2019-06-01T23:22:46.984Z,24.47
2019-06-01T23:25:33.340Z,24.53
2019-06-01T23:28:00.495Z,24.68
2019-06-01T23:30:28.273Z,24.43
2019-06-01T23:32:55.690Z,24.57
2019-06-01T23:35:40.309Z,24.42
2019-06-01T23:38:06.366Z,24.28
2019-06-01T23:40:33.313Z,24.31
2019-06-01T23:43:01.944Z,24.21
2019-06-01T23:45:28.931Z,24.18
2019-06-01T23:47:55.787Z,24.21
2019-06-01T23:50:23.401Z,24.28
2019-06-01T23:52:50.372Z,24.34
2019-06-01T23:55:17.068Z,24.30
2019-06-01T23:57:44.273Z,24.21
